Time;durP1;ratioP1;P1;durP2;ratioP2;P2;SDS_P1;SDS_P2;PMS_P1;PMS_P2;Temp;Humidity;BMP_temperature;BMP_pressure;BME280_temperature;BME280_humidity;BME280_pressure;Samples;Min_cycle;Max_cycle;Signal;HPM_P1;HPM_P2
2023/01/23 00:00:32;;;;;;;10.32;7.63;;;;;;;7.44;99.16;93887.63;5048559;28;20029;-48
2023/01/23 00:02:57;;;;;;;9.82;7.47;;;;;;;7.37;99.73;93863.50;5048528;28;20407;-50
2023/01/23 00:05:23;;;;;;;10.55;7.93;;;;;;;7.54;98.95;93880.50;5031368;28;20029;-47
2023/01/23 00:07:48;;;;;;;11.77;7.75;;;;;;;7.48;100.00;93888.09;5028331;28;20079;-51
2023/01/23 00:10:14;;;;;;;7.65;6.55;;;;;;;7.58;99.15;93891.19;5040235;28;20020;-47
2023/01/23 00:12:43;;;;;;;11.73;8.55;;;;;;;7.52;100.00;93888.53;5048450;28;20025;-50
2023/01/23 00:15:10;;;;;;;11.07;7.82;;;;;;;7.51;100.00;93887.03;5048509;28;20496;-49
2023/01/23 00:17:36;;;;;;;15.02;9.48;;;;;;;7.52;100.00;93885.78;5048695;28;20017;-52
2023/01/23 00:20:03;;;;;;;13.95;8.90;;;;;;;7.65;100.00;93890.63;5048167;28;20032;-48
2023/01/23 00:22:29;;;;;;;12.50;9.55;;;;;;;7.58;100.00;93880.97;5048302;28;20104;-48
2023/01/23 00:24:54;;;;;;;13.27;9.23;;;;;;;7.58;100.00;93886.44;5048457;28;20544;-49
2023/01/23 00:27:20;;;;;;;14.20;8.82;;;;;;;7.45;100.00;93888.38;5047960;28;20025;-49
2023/01/23 00:29:46;;;;;;;10.50;8.48;;;;;;;7.45;100.00;93883.63;5051023;28;20138;-47
2023/01/23 00:32:11;;;;;;;14.30;8.32;;;;;;;7.41;100.00;93885.16;5040825;28;20564;-48
2023/01/23 00:34:37;;;;;;;10.43;7.40;;;;;;;7.35;100.00;93896.22;5052764;28;20025;-48
2023/01/23 00:37:03;;;;;;;11.10;6.70;;;;;;;7.39;100.00;93891.19;5071977;28;20024;-48
2023/01/23 00:39:29;;;;;;;11.18;6.15;;;;;;;7.42;100.00;93895.66;5060918;28;20029;-47
2023/01/23 00:41:55;;;;;;;7.88;5.35;;;;;;;7.58;100.00;93889.19;5051722;28;20412;-47
2023/01/23 00:44:20;;;;;;;8.82;6.25;;;;;;;7.54;100.00;93885.25;5051472;28;20511;-50
2023/01/23 00:46:46;;;;;;;9.77;7.07;;;;;;;7.42;100.00;93901.16;5051810;28;20056;-49
2023/01/23 00:49:11;;;;;;;12.43;7.40;;;;;;;7.54;100.00;93897.00;5051585;28;20048;-51
2023/01/23 00:51:37;;;;;;;14.50;7.93;;;;;;;7.48;100.00;93893.59;5051473;28;20032;-48
2023/01/23 00:54:02;;;;;;;11.55;8.38;;;;;;;7.38;100.00;93892.47;5051241;28;20025;-48
2023/01/23 00:56:28;;;;;;;11.93;9.50;;;;;;;7.47;100.00;93894.09;5051738;28;20025;-48
2023/01/23 00:58:54;;;;;;;16.95;8.88;;;;;;;7.60;100.00;93894.19;5036936;28;20390;-50
2023/01/23 01:01:21;;;;;;;18.20;10.90;;;;;;;7.42;100.00;93898.41;5031137;28;20743;-48
2023/01/23 01:03:47;;;;;;;17.08;10.48;;;;;;;7.23;100.00;93888.63;5035194;28;20013;-47
2023/01/23 01:06:13;;;;;;;12.95;8.23;;;;;;;7.58;100.00;93907.69;5051214;28;20017;-51
2023/01/23 01:08:39;;;;;;;19.00;11.48;;;;;;;7.44;100.00;93897.88;5051256;28;20024;-47
2023/01/23 01:11:05;;;;;;;19.38;11.35;;;;;;;7.56;100.00;93910.22;5031845;28;20460;-48
2023/01/23 01:13:31;;;;;;;16.15;9.88;;;;;;;7.45;100.00;93900.09;5031252;28;20025;-50
2023/01/23 01:15:56;;;;;;;15.15;9.90;;;;;;;7.55;100.00;93912.22;5031193;28;20036;-51
2023/01/23 01:18:22;;;;;;;17.17;10.63;;;;;;;7.54;100.00;93905.25;5031178;28;20769;-49
2023/01/23 01:20:48;;;;;;;20.90;11.73;;;;;;;7.35;100.00;93911.97;5030771;28;20048;-48
2023/01/23 01:23:13;;;;;;;21.02;10.77;;;;;;;7.36;100.00;93905.94;5031221;28;20029;-48
2023/01/23 01:25:39;;;;;;;18.83;11.35;;;;;;;7.39;100.00;93913.16;5033071;28;20390;-51
2023/01/23 01:28:05;;;;;;;12.60;7.93;;;;;;;7.50;100.00;93917.78;5050497;28;20029;-50
2023/01/23 01:30:30;;;;;;;17.40;8.63;;;;;;;7.71;100.00;93921.50;5050313;28;20056;-50
2023/01/23 01:32:56;;;;;;;22.45;8.75;;;;;;;7.51;100.00;93917.25;5060120;28;20059;-47
2023/01/23 01:35:22;;;;;;;16.77;7.78;;;;;;;7.46;100.00;93907.09;5050658;28;20068;-49
2023/01/23 01:37:48;;;;;;;15.45;8.70;;;;;;;7.55;100.00;93920.47;5050700;28;20025;-48
2023/01/23 01:40:18;;;;;;;13.32;7.07;;;;;;;7.54;100.00;93921.72;5032809;28;20032;-48
2023/01/23 01:42:49;;;;;;;11.20;6.82;;;;;;;7.76;100.00;93917.97;5030697;28;20555;-48
2023/01/23 01:45:51;;;;;;;11.30;7.43;;;;;;;7.62;100.00;93914.38;5030479;28;20032;-50
2023/01/23 01:48:18;;;;;;;11.10;6.65;;;;;;;7.66;100.00;93919.59;5030255;28;20547;-49
2023/01/23 01:50:43;;;;;;;9.80;7.18;;;;;;;7.52;100.00;93921.50;5028950;28;20030;-48
2023/01/23 01:53:09;;;;;;;9.00;6.55;;;;;;;7.53;100.00;93912.00;5030419;28;20037;-48
2023/01/23 01:55:35;;;;;;;10.38;6.30;;;;;;;7.52;100.00;93915.25;5029206;28;20112;-48
2023/01/23 01:58:01;;;;;;;12.63;7.18;;;;;;;7.45;100.00;93916.59;5035828;28;20496;-48
2023/01/23 02:00:26;;;;;;;8.57;5.90;;;;;;;7.56;100.00;93919.19;5050377;28;20025;-48
2023/01/23 02:02:57;;;;;;;10.95;7.07;;;;;;;7.53;100.00;93927.75;5050353;28;20412;-51
2023/01/23 02:05:38;;;;;;;13.20;7.05;;;;;;;7.56;100.00;93935.69;5032692;28;20029;-49
2023/01/23 02:08:35;;;;;;;13.15;7.38;;;;;;;7.46;100.00;93928.31;5030034;28;20409;-49
2023/01/23 02:11:02;;;;;;;10.15;6.38;;;;;;;7.35;100.00;93929.19;5046994;28;20565;-48
2023/01/23 02:13:37;;;;;;;9.45;6.47;;;;;;;7.40;100.00;93933.13;5050006;28;20575;-49
2023/01/23 02:16:17;;;;;;;14.35;9.95;;;;;;;7.23;100.00;93932.56;5048636;28;20028;-49
2023/01/23 02:18:46;;;;;;;16.25;9.75;;;;;;;7.20;100.00;93934.34;5048726;28;20024;-51
2023/01/23 02:21:12;;;;;;;;;;;;;;;7.36;100.00;93932.69;5050469;28;20417;-51
2023/01/23 02:23:56;;;;;;;16.05;10.43;;;;;;;7.17;100.00;93929.16;5048922;28;19913;-47
2023/01/23 02:26:28;;;;;;;17.02;10.93;;;;;;;7.15;100.00;93926.16;5049555;28;20031;-51
2023/01/23 02:28:54;;;;;;;18.45;10.52;;;;;;;7.00;100.00;93926.56;5063620;28;20101;-48
2023/01/23 02:31:21;;;;;;;18.10;10.55;;;;;;;6.84;100.00;93936.44;5063993;28;20029;-51
2023/01/23 02:33:55;;;;;;;15.30;8.85;;;;;;;6.98;100.00;93933.81;5034302;28;20044;-48
2023/01/23 02:36:23;;;;;;;15.73;8.85;;;;;;;6.94;100.00;93933.34;5029455;28;20033;-50
2023/01/23 02:39:12;;;;;;;15.37;9.70;;;;;;;6.77;100.00;93934.25;5034261;28;20106;-50
2023/01/23 02:41:40;;;;;;;14.88;9.50;;;;;;;6.89;100.00;93932.91;5048130;28;20040;-51
2023/01/23 02:44:16;;;;;;;14.02;10.10;;;;;;;6.73;100.00;93925.56;5049320;28;20079;-50
2023/01/23 02:46:42;;;;;;;13.68;8.43;;;;;;;6.90;100.00;93928.16;5048987;28;20082;-48
2023/01/23 02:49:07;;;;;;;10.13;6.90;;;;;;;6.80;100.00;93919.50;5049107;28;20033;-49
2023/01/23 02:51:34;;;;;;;10.43;7.40;;;;;;;6.69;100.00;93916.13;5049208;28;20146;-49
2023/01/23 02:53:59;;;;;;;12.48;7.25;;;;;;;6.75;100.00;93934.03;5049512;28;20017;-48
2023/01/23 02:56:25;;;;;;;10.70;7.25;;;;;;;6.77;100.00;93925.28;5048855;28;20028;-50
2023/01/23 03:01:35;;;;;;;10.98;6.10;;;;;;;7.00;100.00;93929.28;5047994;28;20028;-50
2023/01/23 03:04:05;;;;;;;11.15;6.97;;;;;;;6.74;100.00;93931.78;5047910;28;20033;-48
2023/01/23 03:06:35;;;;;;;14.48;7.05;;;;;;;6.66;100.00;93928.88;5049016;28;20033;-50
2023/01/23 03:09:02;;;;;;;12.07;7.35;;;;;;;6.62;100.00;93920.19;5047312;28;20105;-48
2023/01/23 03:11:28;;;;;;;9.50;6.45;;;;;;;6.72;100.00;93926.81;5027862;28;20056;-51
2023/01/23 03:13:53;;;;;;;8.80;5.78;;;;;;;6.70;100.00;93923.09;5029271;28;20025;-50
2023/01/23 03:16:19;;;;;;;8.13;6.20;;;;;;;6.62;100.00;93920.19;5029180;28;20024;-49
2023/01/23 03:18:44;;;;;;;9.05;6.47;;;;;;;6.67;100.00;93918.66;5028957;28;20026;-50
2023/01/23 03:21:11;;;;;;;7.32;5.97;;;;;;;6.59;100.00;93923.19;5028395;28;20032;-49
2023/01/23 03:23:38;;;;;;;10.13;6.78;;;;;;;6.62;100.00;93917.44;5028898;28;20022;-49
2023/01/23 03:26:04;;;;;;;8.93;5.70;;;;;;;6.45;100.00;93924.31;5034598;28;20029;-51
2023/01/23 03:31:15;;;;;;;10.40;5.88;;;;;;;6.59;100.00;93926.66;5043694;28;20119;-48
2023/01/23 03:33:42;;;;;;;6.97;5.18;;;;;;;6.66;100.00;93920.63;5042966;28;20747;-51
2023/01/23 03:36:11;;;;;;;6.57;5.22;;;;;;;6.61;100.00;93915.19;5048677;28;20115;-48
2023/01/23 03:38:36;;;;;;;4.65;3.47;;;;;;;6.78;100.00;93924.00;5048767;28;20416;-48
2023/01/23 03:43:46;;;;;;;5.75;4.45;;;;;;;6.64;100.00;93917.66;5048768;28;20050;-48
2023/01/23 03:46:12;;;;;;;5.22;4.05;;;;;;;6.55;100.00;93914.50;5048556;28;20484;-51
2023/01/23 03:48:38;;;;;;;7.15;5.10;;;;;;;6.50;100.00;93907.78;5048661;28;20421;-50
2023/01/23 03:51:04;;;;;;;7.28;5.13;;;;;;;6.46;100.00;93921.03;5048641;28;20040;-51
2023/01/23 03:53:30;;;;;;;7.25;5.32;;;;;;;6.50;100.00;93923.50;5048707;28;20044;-49
2023/01/23 03:55:55;;;;;;;7.50;5.72;;;;;;;6.61;100.00;93915.19;5048346;28;20039;-50
2023/01/23 03:58:21;;;;;;;12.30;5.90;;;;;;;6.53;100.00;93911.50;5038294;28;20025;-47
2023/01/23 04:00:46;;;;;;;5.75;4.15;;;;;;;6.49;100.00;93916.53;5028384;28;20026;-50
2023/01/23 04:03:11;;;;;;;10.48;7.68;;;;;;;6.58;100.00;93930.66;5029128;28;20029;-48
2023/01/23 04:05:37;;;;;;;7.60;5.53;;;;;;;6.50;100.00;93928.97;5051476;28;20089;-48
2023/01/23 04:08:03;;;;;;;10.27;6.65;;;;;;;6.61;100.00;93926.91;5051828;28;20087;-48
2023/01/23 04:10:28;;;;;;;11.10;6.53;;;;;;;6.45;100.00;93932.53;5038295;28;20056;-48
2023/01/23 04:12:54;;;;;;;12.45;7.47;;;;;;;6.34;100.00;93938.84;5032105;28;20021;-48
2023/01/23 04:15:19;;;;;;;8.43;6.30;;;;;;;6.39;100.00;93940.78;5032249;28;20035;-50
2023/01/23 04:17:45;;;;;;;12.13;7.95;;;;;;;6.38;100.00;93946.78;5031938;28;20033;-50
2023/01/23 04:20:12;;;;;;;15.27;6.82;;;;;;;6.43;100.00;93944.00;5031891;28;20036;-50
2023/01/23 04:22:38;;;;;;;11.45;6.45;;;;;;;6.53;100.00;93944.44;5032085;28;20026;-49
2023/01/23 04:25:04;;;;;;;9.00;6.28;;;;;;;6.43;100.00;93951.50;5061666;28;20035;-47
2023/01/23 04:27:30;;;;;;;13.27;7.28;;;;;;;6.32;100.00;93932.38;5054341;28;20478;-47
2023/01/23 04:29:56;;;;;;;18.00;9.18;;;;;;;6.30;100.00;93945.84;5051642;28;20049;-51
2023/01/23 04:32:22;;;;;;;10.57;7.32;;;;;;;6.45;100.00;93951.72;5047990;28;20033;-51
2023/01/23 04:34:48;;;;;;;14.05;7.55;;;;;;;6.47;100.00;93952.72;5031944;28;20018;-49
2023/01/23 04:37:13;;;;;;;10.82;6.90;;;;;;;6.40;100.00;93964.22;5031553;28;20032;-51
2023/01/23 04:39:39;;;;;;;16.50;9.85;;;;;;;6.38;100.00;93966.00;5043444;28;20028;-48
2023/01/23 04:42:04;;;;;;;16.30;8.65;;;;;;;6.25;100.00;93955.59;5051475;28;20032;-51
2023/01/23 04:44:29;;;;;;;13.73;8.95;;;;;;;6.24;100.00;93964.34;5051886;28;20133;-49
2023/01/23 04:46:55;;;;;;;16.02;8.75;;;;;;;6.33;100.00;93955.78;5051527;28;20029;-49
2023/01/23 04:49:21;;;;;;;16.30;8.40;;;;;;;6.32;100.00;93968.78;5051342;28;20025;-47
2023/01/23 04:51:48;;;;;;;14.55;9.13;;;;;;;6.34;100.00;93979.22;5051724;28;20048;-47
2023/01/23 04:54:15;;;;;;;17.02;9.38;;;;;;;6.23;100.00;93976.56;5051341;28;20492;-51
2023/01/23 04:56:41;;;;;;;11.02;7.18;;;;;;;6.34;100.00;93981.97;5051522;28;20021;-50
2023/01/23 04:59:06;;;;;;;20.05;10.10;;;;;;;6.48;100.00;93978.88;5051122;28;20083;-48
2023/01/23 05:01:32;;;;;;;14.68;8.85;;;;;;;6.28;100.00;93989.50;5051254;28;20517;-47
2023/01/23 05:03:57;;;;;;;13.55;8.63;;;;;;;6.21;100.00;93990.03;5045553;28;20017;-49
2023/01/23 05:06:23;;;;;;;20.60;11.52;;;;;;;6.31;100.00;93989.22;5031310;28;20061;-49
2023/01/23 05:08:48;;;;;;;16.35;9.52;;;;;;;6.38;100.00;93987.94;5031249;28;20032;-51
2023/01/23 05:11:14;;;;;;;14.30;8.88;;;;;;;6.33;100.00;93994.94;5051014;28;20104;-51
2023/01/23 05:13:39;;;;;;;10.10;7.05;;;;;;;6.42;100.00;93996.63;5051414;28;20241;-51
2023/01/23 05:16:05;;;;;;;13.00;8.18;;;;;;;6.35;100.00;93994.41;5049741;28;20029;-49
2023/01/23 05:18:30;;;;;;;14.50;8.13;;;;;;;6.49;100.00;93996.09;5051029;28;20024;-49
2023/01/23 05:20:56;;;;;;;12.95;8.30;;;;;;;6.43;100.00;93992.63;5051065;28;20484;-48
2023/01/23 05:23:21;;;;;;;14.05;8.90;;;;;;;6.49;100.00;93998.81;5051172;28;20484;-49
2023/01/23 05:25:47;;;;;;;12.85;7.95;;;;;;;6.27;100.00;93999.72;5050923;28;20017;-51
2023/01/23 05:28:12;;;;;;;20.88;10.20;;;;;;;6.46;100.00;93999.84;5050419;28;20056;-51
2023/01/23 05:30:38;;;;;;;15.65;9.98;;;;;;;6.36;100.00;93999.41;5050508;28;20075;-50
2023/01/23 05:33:04;;;;;;;18.15;7.85;;;;;;;6.26;100.00;94000.94;5041077;28;20022;-50
2023/01/23 05:35:29;;;;;;;14.88;10.45;;;;;;;6.25;100.00;93998.72;5030625;28;20021;-49
2023/01/23 05:37:55;;;;;;;14.15;9.02;;;;;;;6.37;100.00;93995.41;5030308;28;20033;-51
2023/01/23 05:40:20;;;;;;;16.52;10.35;;;;;;;6.29;100.00;93999.94;5047967;28;20040;-51
2023/01/23 05:42:46;;;;;;;12.57;9.07;;;;;;;6.32;100.00;93998.19;5050869;28;20496;-48
2023/01/23 05:45:12;;;;;;;12.88;9.65;;;;;;;6.34;100.00;93993.69;5050247;28;20056;-48
2023/01/23 05:47:38;;;;;;;16.15;9.68;;;;;;;6.24;100.00;94005.47;5050214;28;20025;-48
2023/01/23 05:50:04;;;;;;;14.63;9.40;;;;;;;6.35;100.00;94003.41;5050565;28;20033;-49
2023/01/23 05:52:55;;;;;;;16.63;10.45;;;;;;;6.26;100.00;94000.22;5050088;28;20040;-48
2023/01/23 05:55:21;;;;;;;18.80;8.73;;;;;;;6.39;100.00;94003.88;5050571;28;20017;-48
2023/01/23 05:57:46;;;;;;;15.85;8.27;;;;;;;6.40;100.00;94012.84;5050299;28;20463;-48
2023/01/23 06:00:13;;;;;;;17.58;9.38;;;;;;;6.35;100.00;94017.09;5050290;28;20032;-48
2023/01/23 06:02:38;;;;;;;22.48;12.07;;;;;;;6.15;100.00;94024.97;5050524;28;20059;-47
2023/01/23 06:05:04;;;;;;;20.52;12.07;;;;;;;6.22;100.00;94021.66;5035259;28;20627;-47
2023/01/23 06:07:30;;;;;;;17.02;11.10;;;;;;;6.21;100.00;94036.63;5030123;28;20025;-48
2023/01/23 06:09:55;;;;;;;20.65;10.73;;;;;;;6.22;100.00;94038.88;5039519;28;20637;-47
2023/01/23 06:12:21;;;;;;;12.48;8.57;;;;;;;6.35;100.00;94047.28;5050139;28;20025;-48
2023/01/23 06:14:47;;;;;;;16.42;9.85;;;;;;;6.40;100.00;94040.28;5049906;28;20511;-48
2023/01/23 06:17:12;;;;;;;21.35;10.20;;;;;;;6.36;100.00;94040.56;5050263;28;20396;-47
2023/01/23 06:19:38;;;;;;;15.13;11.02;;;;;;;6.28;100.00;94038.84;5049502;28;20029;-48
2023/01/23 06:22:03;;;;;;;19.08;8.98;;;;;;;6.35;100.00;94047.28;5069708;28;20633;-48
2023/01/23 06:24:29;;;;;;;15.52;9.75;;;;;;;6.28;100.00;94050.53;5070028;28;20021;-48
2023/01/23 06:26:54;;;;;;;12.18;8.48;;;;;;;6.30;100.00;94048.06;5056347;28;20047;-47
2023/01/23 06:29:19;;;;;;;11.48;6.97;;;;;;;6.31;100.00;94060.50;5049352;28;20052;-49
2023/01/23 06:31:46;;;;;;;10.48;6.80;;;;;;;6.23;100.00;94058.81;5040551;28;20099;-48
2023/01/23 06:34:12;;;;;;;10.65;6.05;;;;;;;6.09;100.00;94066.09;5048124;28;20025;-48
2023/01/23 06:36:39;;;;;;;8.68;6.00;;;;;;;6.10;100.00;94068.34;5049494;28;20025;-47
2023/01/23 06:39:04;;;;;;;10.15;6.20;;;;;;;6.04;100.00;94075.81;5064565;28;20063;-48
2023/01/23 06:41:30;;;;;;;7.85;5.53;;;;;;;6.07;100.00;94072.09;5049272;28;20028;-48
2023/01/23 06:43:55;;;;;;;10.13;4.93;;;;;;;6.10;100.00;94081.31;5049477;28;20086;-47
2023/01/23 06:46:21;;;;;;;11.73;5.90;;;;;;;6.03;100.00;94063.38;5049069;28;20079;-47
2023/01/23 06:48:46;;;;;;;8.25;5.85;;;;;;;6.13;100.00;94074.06;5049059;28;20021;-49
2023/01/23 06:51:11;;;;;;;5.47;4.50;;;;;;;6.25;100.00;94086.47;5049302;28;20033;-48
2023/01/23 06:53:37;;;;;;;9.32;5.43;;;;;;;6.18;100.00;94087.75;5048996;28;20029;-49
2023/01/23 06:56:05;;;;;;;8.48;6.07;;;;;;;6.25;100.00;94083.72;5049215;28;20039;-49
2023/01/23 06:58:31;;;;;;;11.82;6.45;;;;;;;6.09;100.00;94090.75;5049349;28;20386;-48
2023/01/23 07:00:57;;;;;;;9.20;5.30;;;;;;;6.16;100.00;94087.50;5048957;28;20535;-48
2023/01/23 07:03:22;;;;;;;6.15;4.20;;;;;;;6.15;100.00;94096.97;5048634;28;20028;-48
2023/01/23 07:05:48;;;;;;;9.77;4.88;;;;;;;6.12;100.00;94100.72;5029087;28;20021;-48
2023/01/23 07:08:13;;;;;;;11.40;5.18;;;;;;;6.02;100.00;94100.25;5029103;28;20036;-48
2023/01/23 07:10:39;;;;;;;10.25;5.28;;;;;;;6.06;100.00;94110.97;5044728;28;20484;-47
2023/01/23 07:13:09;;;;;;;10.00;5.50;;;;;;;6.01;100.00;94103.50;5048860;28;20108;-48
2023/01/23 07:15:34;;;;;;;10.40;5.45;;;;;;;6.08;100.00;94109.22;5048957;28;20051;-48
2023/01/23 07:18:00;;;;;;;7.38;4.20;;;;;;;6.14;100.00;94111.94;5067310;28;20768;-48
2023/01/23 07:20:26;;;;;;;9.90;4.88;;;;;;;5.88;100.00;94106.03;5068971;28;20071;-48
2023/01/23 07:22:56;;;;;;;11.38;5.85;;;;;;;5.92;100.00;94112.00;5068669;28;20077;-48
2023/01/23 07:25:22;;;;;;;7.57;4.47;;;;;;;6.04;100.00;94100.50;5069175;28;20024;-49
2023/01/23 07:27:48;;;;;;;7.88;5.93;;;;;;;6.21;100.00;94102.44;5028897;28;20037;-47
2023/01/23 07:30:13;;;;;;;10.75;4.97;;;;;;;6.18;100.00;94097.94;5028510;28;20053;-48
2023/01/23 07:32:39;;;;;;;7.40;4.47;;;;;;;5.98;100.00;94096.28;5034259;28;20021;-49
2023/01/23 07:35:05;;;;;;;10.60;5.03;;;;;;;5.97;100.00;94094.81;5048611;28;20067;-48
2023/01/23 07:37:31;;;;;;;7.60;4.65;;;;;;;6.16;100.00;94103.19;5048632;28;20025;-48
2023/01/23 07:39:56;;;;;;;12.73;5.85;;;;;;;6.21;100.00;94102.44;5052086;28;20062;-48
2023/01/23 07:42:22;;;;;;;6.88;4.82;;;;;;;6.05;100.00;94099.25;5052690;28;20059;-48
2023/01/23 07:44:48;;;;;;;11.75;5.55;;;;;;;6.17;100.00;94099.22;5052634;28;20116;-47
2023/01/23 07:47:13;;;;;;;7.75;4.82;;;;;;;6.28;100.00;94099.19;5052931;28;20033;-48
2023/01/23 07:49:38;;;;;;;7.72;5.35;;;;;;;6.20;100.00;94103.69;5052711;28;20425;-47
2023/01/23 07:52:04;;;;;;;9.80;5.05;;;;;;;6.13;100.00;94098.75;5052822;28;20440;-47
2023/01/23 07:54:30;;;;;;;9.00;4.70;;;;;;;6.01;100.00;94100.75;5052694;28;20482;-48
2023/01/23 07:56:55;;;;;;;10.50;5.15;;;;;;;5.83;100.00;94107.50;5052570;28;20183;-48
2023/01/23 07:59:21;;;;;;;5.40;3.83;;;;;;;5.87;100.00;94113.50;5034545;28;20085;-49
2023/01/23 08:01:47;;;;;;;6.95;4.30;;;;;;;5.97;100.00;94113.97;5032329;28;20401;-47
2023/01/23 08:04:13;;;;;;;8.88;4.43;;;;;;;6.01;100.00;94125.44;5039635;28;20021;-49
2023/01/23 08:06:38;;;;;;;7.18;4.65;;;;;;;6.02;100.00;94124.91;5052646;28;20021;-48
2023/01/23 08:09:04;;;;;;;4.28;3.13;;;;;;;6.00;100.00;94129.41;5049627;28;20028;-48
2023/01/23 08:11:29;;;;;;;7.90;4.45;;;;;;;5.97;100.00;94130.44;5032199;28;20025;-48
2023/01/23 08:13:55;;;;;;;6.18;3.72;;;;;;;6.06;100.00;94141.84;5063625;28;20024;-49
2023/01/23 08:16:20;;;;;;;8.27;3.53;;;;;;;5.86;100.00;94133.19;5072317;28;20480;-48
2023/01/23 08:18:46;;;;;;;5.03;3.75;;;;;;;5.82;100.00;94130.69;5071874;28;20024;-48
2023/01/23 08:21:11;;;;;;;11.02;4.38;;;;;;;5.72;100.00;94118.50;5072386;28;20020;-48
2023/01/23 08:23:37;;;;;;;6.32;3.63;;;;;;;5.81;100.00;94117.47;5072257;28;20472;-48
2023/01/23 08:26:06;;;;;;;4.60;3.90;;;;;;;5.80;100.00;94111.25;5065999;28;20577;-48
2023/01/23 08:28:31;;;;;;;6.15;3.83;;;;;;;6.00;100.00;94108.22;5051947;28;20033;-48
2023/01/23 08:31:04;;;;;;;6.95;4.45;;;;;;;5.88;100.00;94120.50;5051161;28;20060;-49
2023/01/23 08:33:30;;;;;;;7.20;4.30;;;;;;;5.88;100.00;94117.75;5038845;28;20037;-48
2023/01/23 08:35:56;;;;;;;7.10;3.97;;;;;;;5.98;100.00;94123.69;5031766;28;20060;-49
2023/01/23 08:38:22;;;;;;;5.63;4.57;;;;;;;6.15;100.00;94121.63;5032853;28;20482;-50
2023/01/23 08:40:49;;;;;;;7.05;4.05;;;;;;;6.32;100.00;94121.59;5051521;28;20024;-49
2023/01/23 08:43:15;;;;;;;7.25;4.40;;;;;;;6.20;100.00;94129.09;5051746;28;20024;-48
2023/01/23 08:45:48;;;;;;;8.95;4.97;;;;;;;6.31;100.00;94139.28;5051685;28;20056;-48
2023/01/23 08:48:14;;;;;;;7.30;4.00;;;;;;;6.49;100.00;94131.25;5051510;28;20847;-49
2023/01/23 08:50:39;;;;;;;7.40;4.68;;;;;;;6.41;100.00;94124.78;5051392;28;20274;-49
2023/01/23 08:53:05;;;;;;;7.15;3.97;;;;;;;6.37;100.00;94134.53;5051274;28;20032;-48
2023/01/23 08:55:31;;;;;;;9.40;4.65;;;;;;;6.24;100.00;94126.13;5051736;28;20028;-49
2023/01/23 08:57:58;;;;;;;8.60;5.53;;;;;;;6.16;100.00;94125.88;5051390;28;20032;-47
2023/01/23 09:00:24;;;;;;;5.07;3.75;;;;;;;6.30;100.00;94126.84;5051181;28;20021;-47
2023/01/23 09:02:50;;;;;;;10.20;5.68;;;;;;;6.21;100.00;94127.13;5051430;28;20057;-47
2023/01/23 09:05:16;;;;;;;10.18;4.93;;;;;;;6.35;100.00;94139.75;5035535;28;20063;-48
2023/01/23 09:07:42;;;;;;;8.50;5.88;;;;;;;6.26;100.00;94135.31;5030078;28;20029;-48
2023/01/23 09:10:08;;;;;;;7.75;4.45;;;;;;;6.41;100.00;94129.53;5050451;28;20524;-49
2023/01/23 09:12:33;;;;;;;10.68;5.28;;;;;;;6.30;100.00;94130.34;5051257;28;20036;-49
2023/01/23 09:14:59;;;;;;;7.13;5.38;;;;;;;6.18;100.00;94141.81;5051105;28;20032;-48
2023/01/23 09:17:24;;;;;;;11.63;6.68;;;;;;;6.25;100.00;94128.34;5050862;28;20550;-48
2023/01/23 09:19:50;;;;;;;9.10;5.43;;;;;;;6.16;100.00;94133.34;5050902;28;20028;-48
2023/01/23 09:22:16;;;;;;;10.18;5.88;;;;;;;6.18;100.00;94117.16;5050942;28;20137;-48
2023/01/23 09:24:41;;;;;;;8.60;6.10;;;;;;;6.32;100.00;94133.31;5051174;28;20029;-49
2023/01/23 09:27:08;;;;;;;9.18;5.95;;;;;;;6.15;100.00;94142.84;5050628;28;20416;-48
2023/01/23 09:29:34;;;;;;;11.45;6.32;;;;;;;6.11;100.00;94148.56;5050539;28;20060;-49
2023/01/23 09:32:00;;;;;;;14.18;8.88;;;;;;;6.08;100.00;94144.88;5049867;28;20033;-48
2023/01/23 09:34:26;;;;;;;9.90;6.90;;;;;;;6.22;100.00;94134.81;5030651;28;20037;-49
2023/01/23 09:36:51;;;;;;;10.43;6.25;;;;;;;6.31;100.00;94131.81;5030581;28;20022;-48
2023/01/23 09:39:17;;;;;;;10.80;7.00;;;;;;;6.29;99.95;94136.31;5039797;28;20036;-48
2023/01/23 09:41:44;;;;;;;11.93;6.57;;;;;;;6.28;100.00;94127.31;5050663;28;20401;-49
2023/01/23 09:44:18;;;;;;;13.02;6.93;;;;;;;6.18;100.00;94133.59;5049055;28;20029;-49
2023/01/23 09:46:54;;;;;;;14.35;7.28;;;;;;;6.17;100.00;94145.81;5050419;28;20141;-48
2023/01/23 09:49:40;;;;;;;17.33;9.23;;;;;;;5.98;100.00;94131.91;5049319;28;20033;-48
2023/01/23 09:52:11;;;;;;;15.23;8.70;;;;;;;6.15;100.00;94129.84;5050540;28;20436;-49
2023/01/23 09:54:46;;;;;;;10.20;6.35;;;;;;;6.39;100.00;94126.56;5050126;28;20036;-48
2023/01/23 09:57:18;;;;;;;11.75;7.30;;;;;;;6.24;99.94;94115.16;5048748;28;20711;-48
2023/01/23 09:59:49;;;;;;;9.15;5.88;;;;;;;6.27;100.00;94123.09;5048976;28;20074;-49
2023/01/23 10:02:18;;;;;;;14.13;8.10;;;;;;;6.25;100.00;94113.88;5048254;28;20028;-48
2023/01/23 10:04:44;;;;;;;;;;;;;;;6.37;100.00;94120.81;5042264;28;20028;-49
2023/01/23 10:07:34;;;;;;;12.15;6.40;;;;;;;6.19;100.00;94124.13;5068767;28;19916;-48
2023/01/23 10:10:09;;;;;;;10.40;5.78;;;;;;;6.32;100.00;94130.56;5059473;28;20040;-47
2023/01/23 10:12:57;;;;;;;13.48;7.25;;;;;;;6.19;100.00;94130.38;5049363;28;20055;-49
2023/01/23 10:15:34;;;;;;;10.43;6.80;;;;;;;6.17;100.00;94130.13;5048524;28;20028;-50
2023/01/23 10:18:03;;;;;;;10.95;7.60;;;;;;;6.05;100.00;94134.88;5048240;28;20087;-48
2023/01/23 10:20:32;;;;;;;10.43;6.10;;;;;;;6.09;100.00;94135.38;5049921;28;20024;-49
2023/01/23 10:23:05;;;;;;;17.47;8.83;;;;;;;5.91;100.00;94124.94;5049919;28;20025;-48
2023/01/23 10:25:34;;;;;;;18.20;10.57;;;;;;;5.96;100.00;94117.97;5048578;28;20048;-48
2023/01/23 10:28:16;;;;;;;12.32;7.20;;;;;;;5.99;100.00;94114.22;5049406;28;20025;-48
2023/01/23 10:30:46;;;;;;;18.58;9.88;;;;;;;5.82;100.00;94114.25;5049297;28;20052;-48
2023/01/23 10:33:14;;;;;;;13.30;8.93;;;;;;;5.73;100.00;94106.28;5038071;28;20087;-48
2023/01/23 10:35:50;;;;;;;12.57;8.20;;;;;;;5.71;100.00;94117.00;5029462;28;20627;-48
2023/01/23 10:38:24;;;;;;;12.00;6.70;;;;;;;6.00;100.00;94116.47;5030299;28;20382;-49
2023/01/23 10:43:34;;;;;;;12.32;8.50;;;;;;;6.00;100.00;94112.97;5049704;28;20044;-48
2023/01/23 10:46:00;;;;;;;15.57;7.97;;;;;;;6.00;100.00;94121.19;5049520;28;20021;-47
2023/01/23 10:48:40;;;;;;;20.65;12.45;;;;;;;6.08;100.00;94111.97;5047793;28;20095;-49
2023/01/23 10:51:27;;;;;;;15.30;10.55;;;;;;;6.13;100.00;94111.19;5049146;28;20035;-49
2023/01/23 10:54:08;;;;;;;17.40;9.82;;;;;;;6.18;100.00;94108.91;5049314;28;20071;-48
2023/01/23 10:56:36;;;;;;;19.13;9.15;;;;;;;6.20;100.00;94114.66;5049423;28;20112;-49
2023/01/23 10:59:04;;;;;;;11.52;8.20;;;;;;;6.13;100.00;94108.44;5032486;28;20108;-48
2023/01/23 11:01:31;;;;;;;14.10;8.52;;;;;;;6.31;100.00;94101.66;5041029;28;20047;-49
2023/01/23 11:04:09;;;;;;;17.38;8.77;;;;;;;6.34;100.00;94100.66;5063871;28;20078;-49
2023/01/23 11:06:34;;;;;;;12.43;8.15;;;;;;;6.31;100.00;94109.88;5049150;28;20017;-49
2023/01/23 11:09:00;;;;;;;16.33;8.30;;;;;;;6.15;100.00;94104.47;5047276;28;20614;-48
2023/01/23 11:11:28;;;;;;;22.63;11.10;;;;;;;6.05;100.00;94101.25;5029040;28;20582;-48
2023/01/23 11:14:21;;;;;;;17.80;10.60;;;;;;;6.15;100.00;94099.69;5028726;28;20017;-48
2023/01/23 11:17:02;;;;;;;13.05;8.82;;;;;;;5.97;100.00;94100.28;5029254;28;20025;-48
2023/01/23 11:19:30;;;;;;;15.93;8.75;;;;;;;5.92;100.00;94096.31;5029125;28;20021;-48
2023/01/23 11:21:58;;;;;;;12.43;8.77;;;;;;;6.17;100.00;94099.22;5027667;28;20032;-48
2023/01/23 11:24:24;;;;;;;13.75;7.55;;;;;;;6.16;98.81;94097.72;5028890;28;20045;-50
2023/01/23 11:27:16;;;;;;;11.88;8.45;;;;;;;6.07;100.00;94101.47;5040586;28;20202;-48
2023/01/23 11:30:19;;;;;;;13.27;7.90;;;;;;;6.10;100.00;94100.50;5047613;28;20075;-48
2023/01/23 11:32:54;;;;;;;15.45;9.00;;;;;;;5.75;100.00;94103.03;5038079;28;20025;-49
2023/01/23 11:35:38;;;;;;;14.15;8.82;;;;;;;5.92;100.00;94109.25;5064465;28;20033;-49
2023/01/23 11:38:04;;;;;;;15.80;9.50;;;;;;;5.92;100.00;94112.00;5047531;28;20024;-49
2023/01/23 11:40:30;;;;;;;12.23;6.68;;;;;;;6.16;100.00;94108.69;5047304;28;20094;-48